Time;durP1;ratioP1;P1;durP2;ratioP2;P2;SDS_P1;SDS_P2;PMS_P1;PMS_P2;Temp;Humidity;BMP_temperature;BMP_pressure;BME280_temperature;BME280_humidity;BME280_pressure;Samples;Min_cycle;Max_cycle;Signal;HPM_P1;HPM_P2
2021/10/31 00:02:04;;;;;;;18.85;14.80;;;10.50;99.90;;;;;;5046559;28;20021;-72
2021/10/31 00:04:30;;;;;;;16.15;14.05;;;10.50;99.90;;;;;;5043830;28;20485;-74
2021/10/31 00:06:55;;;;;;;16.20;13.60;;;10.60;99.90;;;;;;5045166;28;20028;-71
2021/10/31 00:09:21;;;;;;;16.25;13.07;;;10.60;99.90;;;;;;5050156;28;20044;-70
2021/10/31 00:11:47;;;;;;;16.60;13.57;;;10.60;99.90;;;;;;5041627;28;20388;-69
2021/10/31 00:14:13;;;;;;;15.95;13.40;;;10.40;99.90;;;;;;5047478;28;20378;-70
2021/10/31 00:16:38;;;;;;;15.57;12.85;;;10.50;99.90;;;;;;5041874;28;20301;-69
2021/10/31 00:19:04;;;;;;;17.35;14.05;;;10.50;99.90;;;;;;5046929;28;20033;-70
2021/10/31 00:21:29;;;;;;;16.05;12.75;;;10.50;99.90;;;;;;5044599;28;20383;-72
2021/10/31 00:23:55;;;;;;;16.08;12.55;;;10.50;99.90;;;;;;5045218;28;20021;-73
2021/10/31 00:26:21;;;;;;;15.00;11.65;;;10.50;99.90;;;;;;5043628;28;20036;-74
2021/10/31 00:28:47;;;;;;;16.15;12.73;;;10.60;99.90;;;;;;5079207;22;20208;-73
2021/10/31 00:31:13;;;;;;;16.02;12.48;;;10.60;99.90;;;;;;5039754;28;20108;-73
2021/10/31 00:33:38;;;;;;;15.63;11.82;;;10.60;99.90;;;;;;5042871;28;20023;-73
2021/10/31 00:36:05;;;;;;;15.10;11.30;;;10.60;99.90;;;;;;5044975;28;20051;-73
2021/10/31 00:38:31;;;;;;;15.43;10.93;;;10.70;99.90;;;;;;5041457;28;20460;-73
2021/10/31 00:40:56;;;;;;;13.25;11.68;;;10.70;99.90;;;;;;5039968;28;20116;-73
2021/10/31 00:43:22;;;;;;;14.95;11.10;;;10.80;99.90;;;;;;5034732;28;20033;-73
2021/10/31 00:45:49;;;;;;;15.05;11.23;;;10.70;99.90;;;;;;5044964;28;20057;-74
2021/10/31 00:48:15;;;;;;;14.20;11.68;;;10.60;99.90;;;;;;5049630;28;20017;-73
2021/10/31 00:50:42;;;;;;;13.60;10.90;;;10.60;99.90;;;;;;5040944;28;20009;-73
2021/10/31 00:53:08;;;;;;;14.43;11.10;;;10.60;99.90;;;;;;5048088;28;20108;-73
2021/10/31 00:55:33;;;;;;;14.30;11.27;;;10.70;99.90;;;;;;5039595;28;20060;-74
2021/10/31 00:57:59;;;;;;;15.65;10.55;;;10.70;99.90;;;;;;5045598;28;20443;-74
2021/10/31 01:00:25;;;;;;;14.43;11.02;;;10.70;99.90;;;;;;5042704;28;20026;-74
2021/10/31 01:02:52;;;;;;;13.70;10.88;;;10.80;99.90;;;;;;5046864;28;20037;-74
2021/10/31 01:05:21;;;;;;;14.48;10.88;;;10.70;99.90;;;;;;5041522;28;20155;-73
2021/10/31 01:08:16;;;;;;;14.25;11.60;;;10.60;99.90;;;;;;5048015;28;20021;-73
2021/10/31 01:11:16;;;;;;;14.63;11.32;;;10.50;99.90;;;;;;5033498;28;20025;-73
2021/10/31 01:14:21;;;;;;;14.73;11.63;;;10.40;99.90;;;;;;5043310;28;20104;-73
2021/10/31 01:17:03;;;;;;;13.32;11.27;;;10.30;99.90;;;;;;5036874;28;20029;-73
2021/10/31 01:19:57;;;;;;;13.95;12.00;;;10.30;99.90;;;;;;5046905;28;20037;-74
2021/10/31 01:22:54;;;;;;;13.23;11.20;;;10.20;99.90;;;;;;5047085;28;20017;-74
2021/10/31 01:25:45;;;;;;;13.10;11.60;;;10.20;99.90;;;;;;5040354;28;20030;-74
2021/10/31 01:28:24;;;;;;;14.52;11.80;;;10.20;99.90;;;;;;5040906;28;20075;-73
2021/10/31 01:31:27;;;;;;;13.35;11.65;;;10.10;99.90;;;;;;5043345;28;20395;-74
2021/10/31 01:34:04;;;;;;;13.73;11.93;;;10.10;99.90;;;;;;5050944;28;20017;-74
2021/10/31 01:36:54;;;;;;;14.13;11.30;;;10.10;99.90;;;;;;5043132;28;20024;-73
2021/10/31 01:39:39;;;;;;;14.43;11.50;;;10.00;99.90;;;;;;5037294;28;20028;-73
2021/10/31 01:42:25;;;;;;;13.05;11.55;;;10.20;99.90;;;;;;5043592;28;20383;-74
2021/10/31 01:45:13;;;;;;;13.25;11.10;;;10.10;99.90;;;;;;5037812;28;20025;-74
2021/10/31 01:47:49;;;;;;;15.68;11.65;;;10.10;99.90;;;;;;5041945;28;20061;-74
2021/10/31 01:50:48;;;;;;;13.68;10.23;;;10.10;99.90;;;;;;5042575;28;20029;-74
2021/10/31 01:53:47;;;;;;;14.73;11.27;;;10.20;99.90;;;;;;5041720;28;20112;-74
2021/10/31 01:56:18;;;;;;;13.10;10.85;;;10.30;99.90;;;;;;5036078;28;20036;-74
2021/10/31 01:58:47;;;;;;;12.35;11.05;;;10.10;99.90;;;;;;5043673;28;20061;-74
2021/10/31 02:01:16;;;;;;;13.27;11.07;;;10.30;99.90;;;;;;5045881;28;20104;-75
2021/10/31 02:03:43;;;;;;;13.43;11.35;;;10.30;99.90;;;;;;5043664;28;20022;-74
2021/10/31 02:06:11;;;;;;;14.70;11.10;;;10.20;99.90;;;;;;5046111;28;20470;-74
2021/10/31 02:08:38;;;;;;;13.88;10.82;;;10.20;99.90;;;;;;5043507;28;20372;-74
2021/10/31 02:11:06;;;;;;;13.93;11.05;;;10.20;99.90;;;;;;5040020;28;20098;-74
2021/10/31 02:13:32;;;;;;;13.70;10.93;;;10.10;99.90;;;;;;5042423;28;20028;-74
2021/10/31 02:15:59;;;;;;;14.23;10.63;;;10.10;99.90;;;;;;5041965;28;20115;-73
2021/10/31 02:18:26;;;;;;;12.80;11.30;;;10.20;99.90;;;;;;5040817;28;20421;-74
2021/10/31 02:20:56;;;;;;;14.07;10.63;;;10.20;99.90;;;;;;5041618;28;20056;-74
2021/10/31 02:23:22;;;;;;;15.27;11.25;;;10.20;99.90;;;;;;5042998;28;20032;-74
2021/10/31 02:25:47;;;;;;;12.98;11.10;;;10.10;99.90;;;;;;5043247;28;20021;-74
2021/10/31 02:28:13;;;;;;;13.43;10.82;;;10.10;99.90;;;;;;5041552;28;20053;-74
2021/10/31 02:30:39;;;;;;;12.38;11.10;;;10.10;99.90;;;;;;5034326;28;20363;-73
2021/10/31 02:33:04;;;;;;;14.02;11.45;;;10.10;99.90;;;;;;5043029;28;20392;-74
2021/10/31 02:35:30;;;;;;;13.93;10.88;;;10.10;99.90;;;;;;5041128;28;20474;-73
2021/10/31 02:37:55;;;;;;;11.38;10.05;;;10.10;99.90;;;;;;5041701;28;20176;-73
2021/10/31 02:40:23;;;;;;;14.07;10.57;;;10.10;99.90;;;;;;5041518;28;20060;-73
2021/10/31 02:42:50;;;;;;;14.40;10.98;;;10.10;99.90;;;;;;5039255;28;20112;-73
2021/10/31 02:45:16;;;;;;;15.10;9.80;;;10.20;99.90;;;;;;5043627;28;20521;-73
2021/10/31 02:47:54;;;;;;;13.32;10.13;;;10.40;99.90;;;;;;5044061;28;20034;-73
2021/10/31 02:50:23;;;;;;;11.73;9.90;;;10.40;99.90;;;;;;5034356;28;20030;-73
2021/10/31 02:53:11;;;;;;;12.43;10.50;;;10.40;99.90;;;;;;5043068;28;20028;-73
2021/10/31 02:55:55;;;;;;;13.70;10.40;;;10.40;99.90;;;;;;5035519;28;20383;-73
2021/10/31 02:58:40;;;;;;;13.90;10.82;;;10.50;99.90;;;;;;5037605;28;20025;-74
2021/10/31 03:01:07;;;;;;;12.38;10.60;;;10.40;99.90;;;;;;5025203;28;20037;-74
2021/10/31 03:03:33;;;;;;;12.88;10.95;;;10.30;99.90;;;;;;5033701;28;20071;-74
2021/10/31 03:06:00;;;;;;;10.88;9.75;;;10.40;99.90;;;;;;5045530;28;20208;-74
2021/10/31 03:08:27;;;;;;;12.02;10.25;;;10.50;99.90;;;;;;5036818;28;20029;-73
2021/10/31 03:10:58;;;;;;;10.10;9.00;;;10.50;99.90;;;;;;5040831;28;20021;-74
2021/10/31 03:13:25;;;;;;;11.27;9.45;;;10.50;99.90;;;;;;5044036;28;20028;-73
2021/10/31 03:15:51;;;;;;;10.85;9.30;;;10.80;99.90;;;;;;5046602;28;20028;-75
2021/10/31 03:18:17;;;;;;;12.15;10.07;;;10.80;99.90;;;;;;5043915;28;20021;-75
2021/10/31 03:20:43;;;;;;;10.45;9.35;;;10.70;99.90;;;;;;5039993;28;20109;-74
2021/10/31 03:23:09;;;;;;;13.40;9.25;;;10.50;99.90;;;;;;5033187;28;20112;-73
2021/10/31 03:25:35;;;;;;;10.95;9.80;;;10.50;99.90;;;;;;5035226;28;20029;-73
2021/10/31 03:28:00;;;;;;;13.00;9.90;;;10.50;99.90;;;;;;5034070;28;20139;-74
2021/10/31 03:30:26;;;;;;;11.35;9.40;;;10.50;99.90;;;;;;5037638;28;20034;-73
2021/10/31 03:32:51;;;;;;;10.70;9.25;;;10.40;99.90;;;;;;5045580;28;20548;-73
2021/10/31 03:35:17;;;;;;;10.55;8.75;;;10.50;99.90;;;;;;5049279;28;20116;-73
2021/10/31 03:37:43;;;;;;;10.98;8.98;;;10.40;99.90;;;;;;5038010;28;20492;-73
2021/10/31 03:40:10;;;;;;;13.27;9.10;;;10.40;99.90;;;;;;5039577;28;20037;-73
2021/10/31 03:42:35;;;;;;;11.50;9.48;;;10.40;99.90;;;;;;5019619;28;20503;-73
2021/10/31 03:45:01;;;;;;;11.73;9.13;;;10.40;99.90;;;;;;5015862;28;20034;-74
2021/10/31 03:47:28;;;;;;;12.23;9.80;;;10.30;99.90;;;;;;5017985;28;20542;-74
2021/10/31 03:49:54;;;;;;;11.45;10.25;;;10.10;99.90;;;;;;5024407;28;20067;-74
2021/10/31 03:52:19;;;;;;;11.73;10.43;;;10.10;99.90;;;;;;5033892;28;20021;-74
2021/10/31 03:54:45;;;;;;;11.70;9.70;;;9.90;99.90;;;;;;5066071;28;20501;-74
2021/10/31 03:57:11;;;;;;;11.20;9.75;;;9.90;99.90;;;;;;5033978;28;20025;-75
2021/10/31 03:59:36;;;;;;;11.05;9.68;;;9.90;99.90;;;;;;5032720;28;20029;-75
2021/10/31 04:02:03;;;;;;;14.10;11.18;;;9.80;99.90;;;;;;5033746;28;20029;-76
2021/10/31 04:04:29;;;;;;;11.73;9.88;;;9.60;99.90;;;;;;5032718;28;20025;-74
2021/10/31 04:06:55;;;;;;;12.98;10.00;;;9.50;99.90;;;;;;5034066;28;20022;-75
2021/10/31 04:09:20;;;;;;;14.70;10.70;;;9.40;99.90;;;;;;5032569;28;20029;-75
2021/10/31 04:11:46;;;;;;;14.15;10.70;;;9.40;99.90;;;;;;5033545;28;20083;-75
2021/10/31 04:14:11;;;;;;;11.82;9.88;;;9.40;99.90;;;;;;5033971;28;20113;-75
2021/10/31 04:16:37;;;;;;;11.35;10.07;;;9.40;99.90;;;;;;5033640;28;20029;-74
2021/10/31 04:19:03;;;;;;;11.95;10.55;;;9.40;99.90;;;;;;5032677;28;20491;-75
2021/10/31 04:21:28;;;;;;;10.85;9.32;;;9.40;99.90;;;;;;5033507;28;20084;-75
2021/10/31 04:23:54;;;;;;;11.63;9.23;;;9.40;99.90;;;;;;5065772;28;20036;-75
2021/10/31 04:26:19;;;;;;;11.93;10.00;;;9.40;99.90;;;;;;5032261;28;20026;-74
2021/10/31 04:28:45;;;;;;;11.25;9.88;;;9.40;99.90;;;;;;5065458;28;20033;-76
2021/10/31 04:31:10;;;;;;;11.55;10.02;;;9.50;99.90;;;;;;5032139;28;20032;-75
2021/10/31 04:33:36;;;;;;;13.05;10.65;;;9.40;99.90;;;;;;5033600;28;20104;-74
2021/10/31 04:36:03;;;;;;;11.40;10.02;;;9.40;99.90;;;;;;5033792;28;20022;-75
2021/10/31 04:38:31;;;;;;;12.18;10.52;;;9.50;99.90;;;;;;5033248;28;20038;-74
2021/10/31 04:40:56;;;;;;;11.63;9.15;;;9.60;99.90;;;;;;5043897;28;20014;-74
2021/10/31 04:43:24;;;;;;;11.48;9.65;;;9.50;99.90;;;;;;5013558;28;20395;-74
2021/10/31 04:45:49;;;;;;;11.10;9.73;;;9.50;99.90;;;;;;5016892;28;20022;-74
2021/10/31 04:48:15;;;;;;;10.50;8.63;;;9.20;99.90;;;;;;5012169;28;20553;-74
2021/10/31 04:50:41;;;;;;;11.85;8.93;;;9.40;99.90;;;;;;5013070;28;20018;-74
2021/10/31 04:53:08;;;;;;;9.95;8.73;;;9.40;99.90;;;;;;5013354;28;20480;-74
2021/10/31 04:55:38;;;;;;;10.30;8.82;;;9.40;99.90;;;;;;5012975;28;20512;-74
2021/10/31 04:58:04;;;;;;;10.73;8.45;;;9.40;99.90;;;;;;5013852;28;20316;-74
2021/10/31 05:00:30;;;;;;;11.68;10.43;;;9.40;99.90;;;;;;5013216;28;20112;-75
2021/10/31 05:02:56;;;;;;;15.30;12.38;;;9.30;99.90;;;;;;5013180;28;20069;-73
2021/10/31 05:05:22;;;;;;;14.48;12.30;;;9.20;99.90;;;;;;5011811;28;20030;-74
2021/10/31 05:07:49;;;;;;;15.25;12.02;;;9.00;99.90;;;;;;5013119;28;20026;-74
2021/10/31 05:10:18;;;;;;;16.60;13.07;;;9.00;99.90;;;;;;5013025;28;20558;-74
2021/10/31 05:12:45;;;;;;;13.50;12.10;;;9.00;99.90;;;;;;5012829;28;20038;-73
2021/10/31 05:15:11;;;;;;;15.02;13.43;;;9.00;99.90;;;;;;5031049;28;20068;-72
2021/10/31 05:17:37;;;;;;;18.02;13.55;;;8.90;99.90;;;;;;5032634;28;20033;-73
2021/10/31 05:20:04;;;;;;;15.60;12.48;;;8.90;99.90;;;;;;5019286;28;20561;-73
2021/10/31 05:22:29;;;;;;;16.85;12.60;;;8.90;99.90;;;;;;5032279;28;20487;-74
2021/10/31 05:24:55;;;;;;;13.10;11.70;;;8.90;99.90;;;;;;5032452;28;20024;-73
2021/10/31 05:27:20;;;;;;;14.65;12.10;;;8.80;99.90;;;;;;5031066;28;20126;-74
2021/10/31 05:29:46;;;;;;;14.63;12.57;;;8.80;99.90;;;;;;5032275;28;20040;-73
2021/10/31 05:32:12;;;;;;;17.70;14.45;;;8.70;99.90;;;;;;5019846;28;20095;-73
2021/10/31 05:34:37;;;;;;;18.10;14.13;;;8.70;99.90;;;;;;5025756;28;20041;-73
2021/10/31 05:37:03;;;;;;;17.38;14.07;;;8.60;99.90;;;;;;5023487;28;20025;-74
2021/10/31 05:39:29;;;;;;;19.85;15.13;;;8.60;99.90;;;;;;5025015;28;20320;-74
2021/10/31 05:41:54;;;;;;;20.83;15.93;;;8.60;99.90;;;;;;5030756;28;20039;-73
2021/10/31 05:44:20;;;;;;;20.33;16.88;;;8.60;99.90;;;;;;5019162;28;20096;-73
2021/10/31 05:46:46;;;;;;;21.40;16.30;;;8.40;99.90;;;;;;5021456;28;20022;-73
2021/10/31 05:49:12;;;;;;;20.65;16.83;;;8.40;99.90;;;;;;5012456;28;20037;-73
2021/10/31 05:51:37;;;;;;;21.05;17.40;;;8.40;99.90;;;;;;5022884;28;20030;-74
2021/10/31 05:54:03;;;;;;;22.73;17.42;;;8.40;99.90;;;;;;5028541;28;20030;-74
2021/10/31 05:56:29;;;;;;;22.52;17.15;;;8.40;99.90;;;;;;5022814;28;20027;-74
2021/10/31 05:58:54;;;;;;;22.20;17.40;;;8.30;99.90;;;;;;5049815;28;20475;-73
2021/10/31 06:01:20;;;;;;;23.00;18.52;;;8.20;99.90;;;;;;5031861;28;20043;-71
2021/10/31 06:03:45;;;;;;;21.73;16.65;;;8.00;99.90;;;;;;5018578;28;20029;-72
2021/10/31 06:06:11;;;;;;;19.70;16.60;;;8.00;99.90;;;;;;5021858;28;20022;-74
2021/10/31 06:08:37;;;;;;;22.25;17.60;;;8.00;99.90;;;;;;5024205;28;20037;-73
2021/10/31 06:11:03;;;;;;;23.73;18.20;;;8.10;99.90;;;;;;5022063;28;20482;-74
2021/10/31 06:13:28;;;;;;;22.13;17.77;;;8.10;99.90;;;;;;5017260;28;20044;-74
2021/10/31 06:15:54;;;;;;;23.17;17.67;;;8.20;99.90;;;;;;5022052;28;20503;-74
2021/10/31 06:18:20;;;;;;;21.23;17.55;;;8.00;99.90;;;;;;5012043;28;20032;-73
2021/10/31 06:20:46;;;;;;;22.23;18.98;;;8.00;99.90;;;;;;5021513;28;20083;-73
2021/10/31 06:23:14;;;;;;;21.83;18.27;;;8.00;99.90;;;;;;5028591;28;20030;-74
2021/10/31 06:25:41;;;;;;;23.10;18.77;;;8.10;99.90;;;;;;5021160;28;20045;-73
2021/10/31 06:28:07;;;;;;;22.70;18.52;;;8.00;99.90;;;;;;5018668;28;20025;-75
2021/10/31 06:30:33;;;;;;;24.33;19.77;;;8.10;99.90;;;;;;5021774;28;20045;-74
2021/10/31 06:32:58;;;;;;;24.25;18.55;;;8.10;99.90;;;;;;5024125;28;20037;-75
2021/10/31 06:35:24;;;;;;;20.92;17.60;;;8.10;99.90;;;;;;5021738;28;20026;-74
2021/10/31 06:37:49;;;;;;;23.80;19.35;;;8.10;99.90;;;;;;5018450;28;20055;-75
2021/10/31 06:40:16;;;;;;;22.23;18.00;;;8.20;99.90;;;;;;5031547;28;20029;-75
2021/10/31 06:42:42;;;;;;;25.92;19.67;;;8.00;99.90;;;;;;5030232;28;20030;-75
2021/10/31 06:45:08;;;;;;;28.90;21.48;;;8.00;99.90;;;;;;5026749;28;20052;-74
2021/10/31 06:47:34;;;;;;;30.35;23.15;;;8.10;99.90;;;;;;5022504;28;20482;-74
2021/10/31 06:50:00;;;;;;;29.08;22.23;;;8.20;99.90;;;;;;5024862;28;20030;-74
2021/10/31 06:52:26;;;;;;;27.90;22.45;;;8.30;99.90;;;;;;5028829;28;20026;-74
2021/10/31 06:54:51;;;;;;;29.38;22.15;;;8.30;99.90;;;;;;5025621;28;20032;-74
2021/10/31 06:57:18;;;;;;;30.08;24.17;;;8.30;99.90;;;;;;5018021;28;20113;-72
2021/10/31 06:59:43;;;;;;;31.40;23.13;;;8.40;99.90;;;;;;5026638;28;20030;-74
2021/10/31 07:02:09;;;;;;;30.15;23.98;;;8.40;99.90;;;;;;5030833;28;20080;-74
2021/10/31 07:04:35;;;;;;;31.58;23.58;;;8.40;99.90;;;;;;5015644;28;20097;-73
2021/10/31 07:07:00;;;;;;;30.50;24.13;;;8.50;99.90;;;;;;5018207;28;20025;-73
2021/10/31 07:09:26;;;;;;;31.52;24.02;;;8.60;99.90;;;;;;5067310;28;20398;-74
2021/10/31 07:11:52;;;;;;;27.95;22.90;;;8.60;99.90;;;;;;5021787;28;20386;-74
2021/10/31 07:14:17;;;;;;;29.95;23.98;;;8.70;99.90;;;;;;5024599;28;20030;-74
2021/10/31 07:16:43;;;;;;;29.88;23.25;;;8.80;99.90;;;;;;5028837;28;20034;-74
2021/10/31 07:19:09;;;;;;;28.15;22.95;;;8.90;99.90;;;;;;5025523;28;20083;-74
2021/10/31 07:21:35;;;;;;;27.70;22.85;;;8.90;99.90;;;;;;5021442;28;20025;-75
2021/10/31 07:24:01;;;;;;;32.38;24.98;;;9.00;99.90;;;;;;5024874;28;20025;-75
2021/10/31 07:26:26;;;;;;;30.05;24.67;;;9.10;99.90;;;;;;5020073;28;20025;-74
2021/10/31 07:28:52;;;;;;;30.27;23.63;;;9.10;99.90;;;;;;5034733;28;20038;-75
2021/10/31 07:31:20;;;;;;;29.35;23.65;;;9.20;99.90;;;;;;5031600;28;20045;-73
2021/10/31 07:33:45;;;;;;;30.00;23.83;;;9.30;99.90;;;;;;5024854;28;20426;-75
2021/10/31 07:36:11;;;;;;;27.25;22.75;;;9.40;99.90;;;;;;5026311;28;20037;-75
2021/10/31 07:38:40;;;;;;;27.85;23.35;;;9.40;99.90;;;;;;5027447;28;20478;-75
2021/10/31 07:41:06;;;;;;;28.75;23.30;;;9.50;99.90;;;;;;5032946;28;20052;-75
2021/10/31 07:43:31;;;;;;;29.92;23.23;;;9.50;99.90;;;;;;5023924;28;20113;-75
2021/10/31 07:45:58;;;;;;;27.45;23.13;;;9.80;99.90;;;;;;5027989;28;20034;-75
2021/10/31 07:48:24;;;;;;;30.30;23.85;;;9.50;99.90;;;;;;5025470;28;20018;-75
2021/10/31 07:50:49;;;;;;;31.10;22.88;;;9.60;99.90;;;;;;5019840;28;20491;-75
2021/10/31 07:53:15;;;;;;;26.30;21.77;;;9.60;99.90;;;;;;5059047;28;20025;-75
2021/10/31 07:55:45;;;;;;;25.98;21.85;;;9.70;99.90;;;;;;5019819;28;20021;-75
2021/10/31 07:58:15;;;;;;;40.15;29.33;;;9.80;99.90;;;;;;5023541;28;20022;-75
2021/10/31 08:00:41;;;;;;;43.67;30.08;;;9.90;99.90;;;;;;5027685;28;20018;-75
2021/10/31 08:03:06;;;;;;;39.15;28.23;;;10.00;99.90;;;;;;5024690;28;20060;-75
2021/10/31 08:05:32;;;;;;;30.25;23.63;;;10.00;99.90;;;;;;5030089;28;20049;-75
2021/10/31 08:07:58;;;;;;;29.38;22.65;;;10.10;99.90;;;;;;5025434;28;20025;-75
2021/10/31 08:10:24;;;;;;;27.42;22.52;;;10.30;99.90;;;;;;5020911;28;20473;-74
2021/10/31 08:12:50;;;;;;;27.38;23.65;;;10.40;99.90;;;;;;5021865;28;20026;-75
2021/10/31 08:15:16;;;;;;;24.98;20.42;;;10.40;99.90;;;;;;5027653;28;20084;-75
2021/10/31 08:17:41;;;;;;;26.42;20.73;;;10.50;99.90;;;;;;5025072;28;20025;-75
2021/10/31 08:20:08;;;;;;;22.15;18.10;;;10.70;99.90;;;;;;5020820;28;20029;-74
2021/10/31 08:22:33;;;;;;;20.88;16.88;;;10.80;99.90;;;;;;5022982;28;20030;-74
2021/10/31 08:25:00;;;;;;;23.38;17.23;;;10.90;99.90;;;;;;5027347;28;20029;-75
2021/10/31 08:27:25;;;;;;;18.90;16.10;;;11.10;99.90;;;;;;5024963;28;20380;-75
2021/10/31 08:29:52;;;;;;;21.98;14.63;;;11.10;99.90;;;;;;5019421;28;20120;-74
2021/10/31 08:32:18;;;;;;;15.77;13.27;;;11.20;99.90;;;;;;5022684;28;20021;-74
2021/10/31 08:34:43;;;;;;;16.10;13.63;;;11.20;99.90;;;;;;5025908;28;20112;-75
2021/10/31 08:37:09;;;;;;;16.42;13.75;;;11.30;99.90;;;;;;5024673;28;20300;-75
2021/10/31 08:39:35;;;;;;;16.88;13.45;;;11.40;99.90;;;;;;5027385;28;20029;-77
2021/10/31 08:42:00;;;;;;;19.35;15.52;;;11.50;99.90;;;;;;5034130;28;20033;-73
2021/10/31 08:44:26;;;;;;;14.95;13.10;;;11.80;99.90;;;;;;5018919;28;20079;-74
2021/10/31 08:46:52;;;;;;;14.77;13.00;;;12.00;99.90;;;;;;5022217;28;20487;-73
2021/10/31 08:49:19;;;;;;;15.70;11.95;;;12.00;99.90;;;;;;5026983;28;20475;-74
2021/10/31 08:51:44;;;;;;;13.43;10.45;;;12.20;99.90;;;;;;5024859;28;20082;-74
2021/10/31 08:54:10;;;;;;;13.68;10.40;;;12.30;99.90;;;;;;5020029;28;20026;-74
2021/10/31 08:56:35;;;;;;;14.48;10.68;;;12.20;99.90;;;;;;5020554;28;20033;-74
2021/10/31 08:59:02;;;;;;;14.10;10.65;;;12.30;99.90;;;;;;5025290;28;20487;-74
2021/10/31 09:01:28;;;;;;;14.05;10.60;;;12.30;99.90;;;;;;5023471;28;20021;-73
2021/10/31 09:03:54;;;;;;;12.57;10.65;;;12.40;99.90;;;;;;5019369;28;20053;-73
2021/10/31 09:06:25;;;;;;;11.98;9.82;;;12.40;99.90;;;;;;5033068;28;20099;-74
2021/10/31 09:08:50;;;;;;;12.68;10.45;;;12.50;99.90;;;;;;5027918;28;20026;-74
2021/10/31 09:11:16;;;;;;;11.30;9.80;;;12.40;99.90;;;;;;5025369;28;20031;-74
2021/10/31 09:13:41;;;;;;;12.02;10.73;;;12.40;99.90;;;;;;5019951;28;20407;-74
2021/10/31 09:16:07;;;;;;;11.57;9.75;;;12.40;99.90;;;;;;5021265;28;20056;-73
2021/10/31 09:18:33;;;;;;;12.02;9.90;;;12.40;99.90;;;;;;5025409;28;20034;-74
2021/10/31 09:21:01;;;;;;;11.60;10.13;;;12.40;99.90;;;;;;5024772;28;20029;-73
2021/10/31 09:23:27;;;;;;;14.38;10.50;;;12.50;99.90;;;;;;5018525;28;20108;-73
2021/10/31 09:25:52;;;;;;;14.38;10.68;;;12.40;99.90;;;;;;5020578;28;20467;-74
2021/10/31 09:28:18;;;;;;;13.90;10.27;;;12.40;99.90;;;;;;5026987;28;20425;-77
2021/10/31 09:30:44;;;;;;;13.82;10.43;;;12.50;99.90;;;;;;5023903;28;20404;-75
2021/10/31 09:33:11;;;;;;;13.45;10.85;;;12.50;99.90;;;;;;5014354;28;20392;-74
2021/10/31 09:35:44;;;;;;;13.68;11.15;;;12.50;99.90;;;;;;5023699;28;20030;-74
2021/10/31 09:38:11;;;;;;;13.70;10.88;;;12.50;99.90;;;;;;5018997;28;20036;-75
2021/10/31 09:40:37;;;;;;;12.98;11.00;;;12.50;99.90;;;;;;5032037;28;20387;-75
2021/10/31 09:43:04;;;;;;;14.80;11.32;;;12.50;99.90;;;;;;5025471;28;20069;-74
2021/10/31 09:45:32;;;;;;;15.57;11.77;;;12.80;99.90;;;;;;5024739;28;20028;-74
2021/10/31 09:48:03;;;;;;;15.30;10.95;;;12.70;99.90;;;;;;5019820;28;20032;-74
2021/10/31 09:50:31;;;;;;;12.02;10.18;;;12.80;99.90;;;;;;5017455;28;20061;-74
2021/10/31 09:52:58;;;;;;;18.05;11.27;;;12.90;99.90;;;;;;5023970;28;20065;-74
2021/10/31 09:55:23;;;;;;;14.40;11.82;;;12.80;99.90;;;;;;5025993;28;20100;-74
2021/10/31 09:57:50;;;;;;;15.30;12.23;;;12.80;99.90;;;;;;5019150;28;20107;-74
2021/10/31 10:00:20;;;;;;;14.70;10.70;;;12.70;99.90;;;;;;5018614;28;20069;-74
2021/10/31 10:05:27;;;;;;;15.50;13.65;;;12.70;99.90;;;;;;5025930;28;20030;-74
2021/10/31 10:08:13;;;;;;;15.95;13.48;;;12.60;99.90;;;;;;5022683;28;20022;-74
2021/10/31 10:10:46;;;;;;;13.98;11.15;;;12.70;99.90;;;;;;5014250;28;20021;-74
2021/10/31 10:13:19;;;;;;;15.27;12.35;;;12.80;99.90;;;;;;5026289;28;20036;-73
2021/10/31 10:15:48;;;;;;;18.42;13.27;;;12.90;99.90;;;;;;5022652;28;20018;-73
2021/10/31 10:18:32;;;;;;;15.35;12.25;;;12.90;99.90;;;;;;5027598;28;20483;-73
2021/10/31 10:21:19;;;;;;;16.08;12.02;;;13.00;99.90;;;;;;5019488;28;20038;-73
2021/10/31 10:23:59;;;;;;;11.88;9.02;;;13.10;99.90;;;;;;5012859;28;20445;-73
2021/10/31 10:26:33;;;;;;;13.48;10.40;;;13.30;99.90;;;;;;5014507;28;20026;-73
2021/10/31 10:29:20;;;;;;;11.48;9.68;;;13.50;99.90;;;;;;5014115;28;20104;-73
2021/10/31 10:31:49;;;;;;;12.50;10.02;;;13.70;99.90;;;;;;5019222;28;20086;-73
2021/10/31 10:34:15;;;;;;;12.13;10.13;;;13.80;99.90;;;;;;5016850;28;20402;-73
2021/10/31 10:36:43;;;;;;;12.18;10.35;;;13.70;99.90;;;;;;5018902;28;20462;-73
2021/10/31 10:39:10;;;;;;;13.00;11.20;;;13.70;99.90;;;;;;5054279;28;20549;-73
2021/10/31 10:41:43;;;;;;;12.75;11.35;;;13.70;99.90;;;;;;5042924;28;20450;-73
2021/10/31 10:44:24;;;;;;;15.02;11.93;;;13.70;99.90;;;;;;5015611;28;20018;-73
2021/10/31 10:46:54;;;;;;;13.10;9.73;;;13.70;99.90;;;;;;5027808;28;20391;-73
2021/10/31 10:49:21;;;;;;;11.18;9.43;;;13.70;99.90;;;;;;5025845;28;20029;-73
2021/10/31 10:52:16;;;;;;;10.77;9.02;;;14.00;99.90;;;;;;5024031;28;20032;-73
2021/10/31 10:54:46;;;;;;;12.05;8.75;;;14.20;99.90;;;;;;5010612;28;20637;-73
2021/10/31 10:57:12;;;;;;;11.93;8.45;;;14.20;99.90;;;;;;5024785;28;20030;-73
2021/10/31 10:59:38;;;;;;;8.25;7.45;;;14.30;99.90;;;;;;5021918;28;20033;-73
2021/10/31 11:02:18;;;;;;;7.97;7.00;;;14.90;99.90;;;;;;5014442;28;20028;-73
2021/10/31 11:04:49;;;;;;;9.20;7.78;;;14.80;99.90;;;;;;5011998;28;20022;-73
2021/10/31 11:07:15;;;;;;;9.70;8.15;;;15.40;99.90;;;;;;5024907;28;20096;-73
2021/10/31 11:09:48;;;;;;;9.98;7.72;;;15.30;99.90;;;;;;5026655;28;20045;-73
2021/10/31 11:12:32;;;;;;;11.25;7.97;;;15.40;99.90;;;;;;5035438;28;20026;-73
2021/10/31 11:15:08;;;;;;;9.02;7.35;;;15.20;99.90;;;;;;5031467;28;20024;-73
2021/10/31 11:17:40;;;;;;;7.82;7.05;;;15.50;99.90;;;;;;5021118;28;20065;-73
2021/10/31 11:20:08;;;;;;;16.15;7.45;;;15.40;99.90;;;;;;5024666;28;20496;-73
2021/10/31 11:22:34;;;;;;;9.02;6.22;;;15.70;99.90;;;;;;5022753;28;20387;-73
2021/10/31 11:25:01;;;;;;;7.05;6.35;;;15.90;99.90;;;;;;5031115;28;20026;-73
2021/10/31 11:27:30;;;;;;;7.35;6.60;;;16.10;99.90;;;;;;5020039;28;20488;-73
2021/10/31 11:29:59;;;;;;;8.00;6.43;;;16.20;99.90;;;;;;5015116;28;20041;-73
2021/10/31 11:32:27;;;;;;;8.98;6.68;;;16.20;99.90;;;;;;5025826;28;20064;-73
2021/10/31 11:34:55;;;;;;;8.77;7.43;;;15.90;99.90;;;;;;5021429;28;20021;-73
2021/10/31 11:37:25;;;;;;;9.35;7.47;;;16.10;99.90;;;;;;5020544;28;20026;-73
2021/10/31 11:39:54;;;;;;;8.25;7.22;;;16.10;99.90;;;;;;5034287;28;20071;-73
2021/10/31 11:42:20;;;;;;;10.90;7.13;;;16.30;99.90;;;;;;5034588;28;20443;-73
2021/10/31 11:44:58;;;;;;;9.32;6.90;;;16.20;99.90;;;;;;5034713;28;20029;-73
2021/10/31 11:47:29;;;;;;;8.63;6.78;;;16.50;99.90;;;;;;5026320;28;20017;-73
2021/10/31 11:50:11;;;;;;;8.48;7.03;;;16.80;99.90;;;;;;5024939;28;20021;-73
2021/10/31 11:52:55;;;;;;;8.25;7.00;;;16.60;99.90;;;;;;5014207;28;20026;-73
2021/10/31 11:55:29;;;;;;;10.65;6.90;;;16.40;99.90;;;;;;5028177;28;20026;-73
2021/10/31 11:58:02;;;;;;;9.68;6.90;;;16.40;99.90;;;;;;5024166;28;20040;-74
2021/10/31 12:00:31;;;;;;;9.55;6.53;;;16.60;99.90;;;;;;5020555;28;20060;-73
2021/10/31 12:03:09;;;;;;;9.30;6.75;;;17.00;99.90;;;;;;5023482;28;20476;-73
2021/10/31 12:05:37;;;;;;;11.48;6.80;;;16.70;99.90;;;;;;5026695;28;20387;-73
2021/10/31 12:08:04;;;;;;;8.82;6.40;;;16.70;99.90;;;;;;5027373;28;20071;-73
2021/10/31 12:10:45;;;;;;;5.75;5.07;;;16.70;99.90;;;;;;5019472;28;20570;-73
2021/10/31 12:13:15;;;;;;;6.47;5.78;;;17.00;99.90;;;;;;5018883;28;20029;-73
2021/10/31 12:15:58;;;;;;;7.90;5.43;;;16.70;99.90;;;;;;5023657;28;20107;-74
2021/10/31 12:18:45;;;;;;;7.95;5.45;;;16.60;99.90;;;;;;5020719;28;20087;-74
2021/10/31 12:21:28;;;;;;;7.43;5.85;;;16.50;99.90;;;;;;5017672;28;20037;-73
2021/10/31 12:24:01;;;;;;;8.98;5.10;;;16.80;99.90;;;;;;5014211;28;20025;-73
2021/10/31 12:26:32;;;;;;;7.10;5.43;;;17.10;99.90;;;;;;5026023;28;20030;-74
2021/10/31 12:29:12;;;;;;;6.20;4.80;;;16.90;99.90;;;;;;5014414;28;20053;-74
2021/10/31 12:31:38;;;;;;;5.95;4.45;;;17.00;99.90;;;;;;5026949;28;20383;-74
2021/10/31 12:34:10;;;;;;;6.40;4.40;;;17.00;99.90;;;;;;5026039;28;20036;-74
2021/10/31 12:36:37;;;;;;;6.15;4.43;;;17.40;99.90;;;;;;5021740;28;20100;-73
2021/10/31 12:39:30;;;;;;;5.88;3.80;;;17.30;99.90;;;;;;5022973;28;20438;-74
2021/10/31 12:42:16;;;;;;;5.22;4.05;;;17.40;99.90;;;;;;5022424;28;20066;-74
2021/10/31 12:44:44;;;;;;;4.43;3.80;;;17.50;99.90;;;;;;5020600;28;20061;-75
2021/10/31 12:47:14;;;;;;;4.75;4.25;;;17.40;99.90;;;;;;5019387;28;20109;-74